Weather Forecast for Al Bateen Airport 
Saturday, June 24, 2017 (20:38 UTC)
Al Bateen Executive Airport
ICAO Code: OMAD
IATA Code: AZI
  • METAR OMAD 242000Z 34003KT 310V010 CAVOK 34/26 Q0999 NOSIG=
  • TAF OMAD 241700Z 2418/2600 31006KT 8000 NSC BECMG 2500/2502 21004KT PROB30 2500/2503 VRB02KT 4000 HZ BKN008 BECMG 2505/2507 30011KT=
AL BATEEN (OMAD) 5 DAY OUTLOOK:
Monday, 26/Jun/2017
HIGH:
40°C
LOW:
29°C
MIN. VISIBILITY:
3000 meters
WIND (DIRECTION/SPEED):
SSW at 5 - 7 knots (9 - 13 km/h) becoming NW at 10 - 15 knots (19 - 28 km/h)
WEATHER:
Mist patches at first otherwise sunny.
RAINFALL:
Nil
Tuesday, 27/Jun/2017
HIGH:
40°C
LOW:
29°C
MIN. VISIBILITY:
4000 meters
WIND (DIRECTION/SPEED):
WSW at 5 - 7 knots (9 - 13 km/h) becoming NW at 10 - 15 knots (19 - 28 km/h)
WEATHER:
Hazy at first otherwise sunny.
RAINFALL:
Nil
Wednesday, 28/Jun/2017
HIGH:
42°C
LOW:
29°C
MIN. VISIBILITY:
7000 meters
WIND (DIRECTION/SPEED):
SE at 7 - 10 knots (13 - 19 km/h) becoming NNW at 10 - 15 knots (19 - 28 km/h)
WEATHER:
Sunny.
RAINFALL:
Nil
Thursday, 29/Jun/2017
HIGH:
43°C
LOW:
30°C
MIN. VISIBILITY:
7000 meters
WIND (DIRECTION/SPEED):
SE at 5 - 7 knots (9 - 13 km/h) becoming NNW at 10 - 15 knots (19 - 28 km/h)
WEATHER:
Sunny.
RAINFALL:
Nil
Friday, 30/Jun/2017
HIGH:
44°C
LOW:
29°C
MIN. VISIBILITY:
7000 meters
WIND (DIRECTION/SPEED):
SE at 5 - 7 knots (9 - 13 km/h) becoming NW at 10 - 15 knots (19 - 28 km/h)
WEATHER:
Sunny.
RAINFALL:
Nil